createdAt,value
2022-08-24T00:01:30.873Z,4.53
2022-08-24T00:04:54.423Z,5.03
2022-08-24T00:08:19.955Z,3.92
2022-08-24T00:11:43.036Z,5.68
2022-08-24T00:15:08.981Z,5.10
2022-08-24T00:18:32.296Z,7.15
2022-08-24T00:21:56.201Z,5.90
2022-08-24T00:25:20.932Z,5.10
2022-08-24T00:28:44.076Z,4.35
2022-08-24T00:32:09.662Z,3.70
2022-08-24T00:35:32.965Z,4.32
2022-08-24T00:38:56.328Z,4.18
2022-08-24T00:42:20.725Z,4.30
2022-08-24T00:45:47.573Z,4.03
2022-08-24T00:49:19.305Z,4.32
2022-08-24T00:52:46.377Z,4.05
2022-08-24T00:56:13.809Z,3.50
2022-08-24T00:59:51.518Z,5.03
2022-08-24T01:03:14.989Z,4.10
2022-08-24T01:06:38.092Z,4.47
2022-08-24T01:10:06.676Z,3.70
2022-08-24T01:13:31.121Z,3.45
2022-08-24T01:17:09.430Z,4.95
2022-08-24T01:20:32.667Z,8.18
2022-08-24T01:24:00.553Z,3.67
2022-08-24T01:27:26.705Z,4.57
2022-08-24T01:30:51.293Z,3.13
2022-08-24T01:34:14.357Z,4.35
2022-08-24T01:37:37.785Z,3.92
2022-08-24T01:41:07.646Z,4.03
2022-08-24T01:44:34.504Z,3.97
2022-08-24T01:47:58.547Z,4.10
2022-08-24T01:51:22.034Z,4.10
2022-08-24T01:54:45.132Z,3.83
2022-08-24T01:58:10.129Z,3.78
2022-08-24T02:01:38.001Z,3.40
2022-08-24T02:05:01.357Z,4.10
2022-08-24T02:08:25.484Z,3.53
2022-08-24T02:11:50.089Z,5.35
2022-08-24T02:15:14.782Z,3.60
2022-08-24T02:18:40.559Z,4.40
2022-08-24T02:22:03.950Z,3.40
2022-08-24T02:25:30.642Z,4.50
2022-08-24T02:28:54.459Z,3.58
2022-08-24T02:32:19.703Z,4.03
2022-08-24T02:35:43.030Z,5.60
2022-08-24T02:39:06.753Z,3.28
2022-08-24T02:42:29.944Z,3.45
2022-08-24T02:45:53.008Z,5.47
2022-08-24T02:49:21.346Z,4.07
2022-08-24T02:52:45.532Z,6.35
2022-08-24T02:56:08.604Z,4.32
2022-08-24T02:59:31.643Z,3.63
2022-08-24T03:02:56.390Z,3.75
2022-08-24T03:06:21.126Z,3.25
2022-08-24T03:09:44.436Z,4.00
2022-08-24T03:13:07.618Z,3.17
2022-08-24T03:16:32.528Z,4.70
2022-08-24T03:19:56.956Z,4.13
2022-08-24T03:23:21.579Z,3.45
2022-08-24T03:26:44.694Z,3.75
2022-08-24T03:30:12.801Z,3.65
2022-08-24T03:33:36.496Z,4.13
2022-08-24T03:36:59.689Z,4.50
2022-08-24T03:40:24.728Z,3.90
2022-08-24T03:43:51.496Z,4.10
2022-08-24T03:47:16.639Z,4.10
2022-08-24T03:50:39.601Z,4.85
2022-08-24T03:54:03.545Z,3.47
2022-08-24T03:57:28.368Z,5.82
2022-08-24T04:00:52.200Z,4.45
2022-08-24T04:04:15.340Z,4.68
2022-08-24T04:07:40.293Z,3.55
2022-08-24T04:11:05.012Z,3.97
2022-08-24T04:14:29.528Z,3.85
2022-08-24T04:17:58.408Z,4.18
2022-08-24T04:21:23.737Z,4.47
2022-08-24T04:24:46.910Z,3.88
2022-08-24T04:28:10.408Z,4.78
2022-08-24T04:31:36.429Z,4.53
2022-08-24T04:34:59.837Z,3.78
2022-08-24T04:38:24.200Z,4.65
2022-08-24T04:42:03.222Z,3.95
2022-08-24T04:45:30.614Z,4.13
2022-08-24T04:48:55.246Z,4.45
2022-08-24T04:52:19.067Z,4.65
2022-08-24T04:55:44.993Z,4.63
2022-08-24T04:59:08.348Z,4.47
2022-08-24T05:02:34.895Z,6.32
2022-08-24T05:06:02.497Z,7.97
2022-08-24T05:09:25.536Z,19.35
2022-08-24T05:12:48.578Z,7.38
2022-08-24T05:16:15.711Z,13.20
2022-08-24T05:19:42.241Z,5.35
2022-08-24T05:23:07.003Z,8.00
2022-08-24T05:26:31.644Z,9.00
2022-08-24T05:29:56.320Z,5.57
2022-08-24T05:33:19.769Z,7.07
2022-08-24T05:36:43.390Z,8.65
2022-08-24T05:40:19.040Z,8.95
2022-08-24T05:43:49.397Z,6.93
2022-08-24T05:47:12.626Z,8.23
2022-08-24T05:50:35.858Z,5.65
2022-08-24T05:54:00.601Z,8.73
2022-08-24T05:57:35.398Z,7.57
2022-08-24T06:01:16.214Z,5.22
2022-08-24T06:04:39.526Z,6.88
2022-08-24T06:08:02.592Z,9.05
2022-08-24T06:11:30.134Z,6.63
2022-08-24T06:14:56.250Z,5.50
2022-08-24T06:18:20.177Z,5.57
2022-08-24T06:21:44.476Z,6.80
2022-08-24T06:25:25.641Z,5.10
2022-08-24T06:28:49.189Z,6.93
2022-08-24T06:32:14.261Z,4.80
2022-08-24T06:35:37.864Z,6.18
2022-08-24T06:39:01.936Z,5.68
2022-08-24T06:42:25.574Z,6.60
2022-08-24T06:45:48.756Z,5.80
2022-08-24T06:49:15.604Z,6.65
2022-08-24T06:52:39.421Z,5.55
2022-08-24T06:56:02.788Z,8.52
2022-08-24T06:59:29.614Z,10.63
2022-08-24T07:02:53.106Z,7.20
2022-08-24T07:06:18.907Z,6.63
2022-08-24T07:09:41.924Z,11.85
2022-08-24T07:13:05.340Z,10.98
2022-08-24T07:16:29.821Z,9.63
2022-08-24T07:19:57.127Z,15.45
2022-08-24T07:23:51.975Z,8.75
2022-08-24T07:27:15.313Z,8.07
2022-08-24T07:30:38.994Z,10.30
2022-08-24T07:34:03.506Z,8.52
2022-08-24T07:37:40.748Z,12.43
2022-08-24T07:41:35.507Z,6.88
2022-08-24T07:44:49.165Z,7.10
2022-08-24T07:48:14.231Z,8.50
2022-08-24T07:51:44.936Z,9.25
2022-08-24T07:55:12.046Z,9.15
2022-08-24T07:58:37.561Z,8.52
2022-08-24T08:02:01.249Z,7.43
2022-08-24T08:05:25.280Z,7.93
2022-08-24T08:08:50.296Z,8.32
2022-08-24T08:12:13.577Z,6.63
2022-08-24T08:15:50.369Z,10.07
2022-08-24T08:19:13.657Z,10.32
2022-08-24T08:22:56.565Z,5.95
2022-08-24T08:26:34.823Z,6.45
2022-08-24T08:30:07.239Z,5.75
2022-08-24T08:33:33.261Z,6.75
2022-08-24T08:36:56.525Z,9.35
2022-08-24T08:40:32.044Z,8.80
2022-08-24T08:44:02.657Z,6.43
2022-08-24T08:47:45.256Z,5.93
2022-08-24T08:51:48.544Z,8.25
2022-08-24T08:55:24.892Z,6.10
2022-08-24T08:59:03.468Z,5.78
2022-08-24T09:02:55.237Z,6.65
2022-08-24T09:06:50.410Z,5.35
2022-08-24T09:10:38.883Z,8.80
2022-08-24T09:14:34.850Z,8.00
2022-08-24T09:18:11.990Z,7.35
2022-08-24T09:22:01.696Z,5.35
2022-08-24T09:25:33.329Z,6.18
2022-08-24T09:29:11.815Z,5.88
2022-08-24T09:32:55.715Z,5.78
2022-08-24T09:36:30.028Z,7.55
2022-08-24T09:40:18.092Z,5.65
2022-08-24T09:44:13.763Z,7.05
2022-08-24T09:47:59.216Z,5.40
2022-08-24T09:52:01.970Z,7.60
2022-08-24T09:56:05.847Z,5.75
2022-08-24T09:59:48.978Z,5.88
2022-08-24T10:03:27.396Z,6.20
2022-08-24T10:07:09.133Z,4.68
2022-08-24T10:10:41.283Z,5.75
2022-08-24T10:14:13.095Z,5.13
2022-08-24T10:17:48.189Z,4.90
2022-08-24T10:21:19.896Z,5.78
2022-08-24T10:25:01.312Z,4.88
2022-08-24T10:29:03.866Z,5.90
2022-08-24T10:32:43.948Z,5.57
2022-08-24T10:36:21.336Z,4.72
2022-08-24T10:40:22.967Z,5.50
2022-08-24T10:44:02.626Z,7.70
2022-08-24T10:47:30.782Z,5.20
2022-08-24T10:51:00.798Z,5.57
2022-08-24T10:54:25.261Z,4.80
2022-08-24T10:58:07.257Z,5.57
2022-08-24T11:01:33.630Z,4.93
2022-08-24T11:04:58.770Z,5.18
2022-08-24T11:08:26.033Z,6.03
2022-08-24T11:11:50.831Z,8.10
2022-08-24T11:15:24.832Z,7.70
2022-08-24T11:18:51.258Z,5.35
2022-08-24T11:22:32.921Z,6.65
2022-08-24T11:26:03.917Z,5.68
2022-08-24T11:29:51.602Z,8.85
2022-08-24T11:33:28.347Z,5.60
2022-08-24T11:36:51.800Z,6.35
2022-08-24T11:40:16.746Z,5.80
2022-08-24T11:43:57.316Z,5.07
2022-08-24T11:47:48.005Z,6.43
2022-08-24T11:51:16.565Z,4.65
2022-08-24T11:54:46.141Z,5.60
2022-08-24T11:58:14.971Z,7.00
2022-08-24T12:01:46.224Z,6.60
2022-08-24T12:05:22.186Z,6.38
2022-08-24T12:08:50.573Z,6.05
2022-08-24T12:12:18.969Z,7.85
2022-08-24T12:15:51.989Z,6.18
2022-08-24T12:19:22.730Z,8.32
2022-08-24T12:22:46.406Z,8.38
2022-08-24T12:26:13.217Z,4.78
2022-08-24T12:29:41.753Z,5.20
2022-08-24T12:33:10.742Z,7.88
2022-08-24T12:36:42.329Z,5.40
2022-08-24T12:40:14.712Z,5.28
2022-08-24T12:43:43.141Z,10.27
2022-08-24T12:47:06.687Z,8.40
2022-08-24T12:50:36.118Z,5.80
2022-08-24T12:54:29.326Z,7.40
2022-08-24T12:58:30.910Z,5.45
2022-08-24T13:02:00.852Z,4.55
2022-08-24T13:05:24.241Z,7.20
2022-08-24T13:08:51.518Z,5.70
2022-08-24T13:13:00.184Z,5.82
2022-08-24T13:16:51.534Z,5.57
2022-08-24T13:20:23.403Z,5.80
2022-08-24T13:23:46.526Z,5.43
2022-08-24T13:27:42.229Z,5.47
2022-08-24T13:31:22.297Z,3.67
2022-08-24T13:34:49.318Z,4.38
2022-08-24T13:38:52.068Z,4.75
2022-08-24T13:42:35.774Z,5.18
2022-08-24T13:46:02.485Z,5.38
2022-08-24T13:49:46.271Z,4.43
2022-08-24T13:53:44.193Z,4.57
2022-08-24T13:57:26.577Z,3.78
2022-08-24T14:00:59.743Z,3.90
2022-08-24T14:04:48.878Z,3.97
2022-08-24T14:08:42.022Z,4.82
2022-08-24T14:12:23.978Z,8.13
2022-08-24T14:16:15.309Z,8.63
2022-08-24T14:19:50.855Z,4.20
2022-08-24T14:23:30.917Z,6.78
2022-08-24T14:27:11.496Z,7.28
2022-08-24T14:30:47.514Z,5.13
2022-08-24T14:34:25.985Z,3.17
2022-08-24T14:38:02.550Z,3.28
2022-08-24T14:41:51.233Z,4.53
2022-08-24T14:45:23.208Z,3.90
2022-08-24T14:48:55.277Z,5.47
2022-08-24T14:52:37.205Z,4.63
2022-08-24T14:56:10.969Z,3.40
2022-08-24T14:59:46.712Z,3.88
2022-08-24T15:03:34.844Z,3.08
2022-08-24T15:07:08.138Z,3.92
2022-08-24T15:10:39.107Z,6.80
2022-08-24T15:14:05.679Z,6.18
2022-08-24T15:17:42.486Z,3.13
2022-08-24T15:21:21.484Z,3.92
2022-08-24T15:24:51.089Z,2.75
2022-08-24T15:28:23.164Z,3.70
2022-08-24T15:31:57.795Z,3.00
2022-08-24T15:35:26.644Z,4.78
2022-08-24T15:38:51.109Z,5.03
2022-08-24T15:42:16.603Z,3.95
2022-08-24T15:45:47.007Z,2.80
2022-08-24T15:49:17.119Z,3.10
2022-08-24T15:52:47.906Z,2.90
2022-08-24T15:56:47.611Z,7.03
2022-08-24T16:00:14.543Z,2.80
2022-08-24T16:03:56.773Z,2.97
2022-08-24T16:07:27.812Z,4.30
2022-08-24T16:10:53.365Z,3.08
2022-08-24T16:14:28.385Z,3.25
2022-08-24T16:17:59.140Z,3.22
2022-08-24T16:21:29.722Z,2.53
2022-08-24T16:25:22.618Z,2.95
2022-08-24T16:28:45.736Z,2.60
2022-08-24T16:32:21.164Z,5.05
2022-08-24T16:35:53.739Z,2.75
2022-08-24T16:39:16.801Z,3.22
2022-08-24T16:42:40.968Z,4.32
2022-08-24T16:46:06.416Z,2.85
2022-08-24T16:49:31.721Z,2.60
2022-08-24T16:52:54.737Z,2.85
2022-08-24T16:56:17.753Z,3.15
2022-08-24T16:59:43.727Z,2.70
2022-08-24T17:03:06.753Z,3.95
2022-08-24T17:06:31.523Z,3.13
2022-08-24T17:09:55.520Z,2.58
2022-08-24T17:13:39.277Z,2.90
2022-08-24T17:17:01.781Z,2.90
2022-08-24T17:20:25.885Z,2.33
2022-08-24T17:23:50.409Z,2.50
2022-08-24T17:27:13.889Z,2.80
2022-08-24T17:30:36.988Z,2.70
2022-08-24T17:34:00.418Z,2.60
2022-08-24T17:37:23.537Z,2.92
2022-08-24T17:40:47.919Z,2.35
2022-08-24T17:44:15.537Z,3.28
2022-08-24T17:47:38.642Z,3.45
2022-08-24T17:51:01.696Z,2.58
2022-08-24T17:54:24.782Z,3.25
2022-08-24T17:57:49.181Z,2.75
2022-08-24T18:01:12.263Z,2.92
2022-08-24T18:04:36.797Z,3.70
2022-08-24T18:08:00.718Z,3.00
2022-08-24T18:11:25.961Z,4.53
2022-08-24T18:14:51.090Z,11.75
2022-08-24T18:18:14.170Z,12.70
2022-08-24T18:21:37.142Z,6.88
2022-08-24T18:25:00.157Z,6.25
2022-08-24T18:28:24.112Z,6.35
2022-08-24T18:31:49.132Z,6.22
2022-08-24T18:35:12.226Z,5.05
2022-08-24T18:38:36.158Z,5.35
2022-08-24T18:42:01.992Z,5.28
2022-08-24T18:45:27.541Z,9.25
2022-08-24T18:48:53.752Z,6.20
2022-08-24T18:52:19.027Z,9.60
2022-08-24T18:55:44.140Z,6.47
2022-08-24T18:59:07.565Z,5.20
2022-08-24T19:02:34.048Z,7.47
2022-08-24T19:05:58.988Z,11.88
2022-08-24T19:09:22.158Z,7.57
2022-08-24T19:12:48.536Z,7.93
2022-08-24T19:16:12.482Z,5.38
2022-08-24T19:19:36.079Z,5.55
2022-08-24T19:23:08.419Z,4.47
2022-08-24T19:26:31.956Z,5.38
2022-08-24T19:29:56.316Z,5.28
2022-08-24T19:33:25.712Z,6.40
2022-08-24T19:36:49.214Z,5.60
2022-08-24T19:40:14.609Z,8.50
2022-08-24T19:44:00.071Z,7.00
2022-08-24T19:47:22.765Z,8.23
2022-08-24T19:50:46.137Z,6.30
2022-08-24T19:54:09.364Z,7.40
2022-08-24T19:57:42.572Z,7.35
2022-08-24T20:01:11.806Z,8.00
2022-08-24T20:04:34.849Z,7.80
2022-08-24T20:07:59.431Z,8.63
2022-08-24T20:11:25.197Z,8.23
2022-08-24T20:14:49.883Z,9.45
2022-08-24T20:18:14.507Z,8.93
2022-08-24T20:21:37.863Z,10.27
2022-08-24T20:25:00.949Z,11.55
2022-08-24T20:28:29.029Z,9.80
2022-08-24T20:31:55.913Z,8.98
2022-08-24T20:35:19.230Z,8.25
2022-08-24T20:38:42.237Z,10.73
2022-08-24T20:42:08.634Z,7.28
2022-08-24T20:45:34.222Z,6.20
2022-08-24T20:48:59.522Z,6.65
2022-08-24T20:52:22.599Z,8.00
2022-08-24T20:55:46.805Z,9.88
2022-08-24T20:59:12.154Z,6.15
2022-08-24T21:02:35.180Z,8.65
2022-08-24T21:06:00.144Z,6.50
2022-08-24T21:09:23.279Z,6.65
2022-08-24T21:12:46.517Z,5.75
2022-08-24T21:16:11.113Z,8.63
2022-08-24T21:19:34.272Z,5.45
2022-08-24T21:22:58.621Z,5.47
2022-08-24T21:26:25.739Z,5.97
2022-08-24T21:29:48.770Z,5.82
2022-08-24T21:33:29.289Z,6.50
2022-08-24T21:36:52.796Z,5.63
2022-08-24T21:40:18.958Z,5.55
2022-08-24T21:43:42.049Z,5.32
2022-08-24T21:47:05.713Z,6.50
2022-08-24T21:50:29.586Z,6.00
2022-08-24T21:53:54.950Z,5.10
2022-08-24T21:57:24.587Z,9.40
2022-08-24T22:00:47.712Z,6.05
2022-08-24T22:04:11.256Z,5.57
2022-08-24T22:07:34.502Z,7.10
2022-08-24T22:10:57.558Z,5.38
2022-08-24T22:14:22.356Z,6.90
2022-08-24T22:17:46.196Z,6.05
2022-08-24T22:21:18.177Z,5.40
2022-08-24T22:24:41.165Z,5.18
2022-08-24T22:28:04.850Z,5.80
2022-08-24T22:31:30.873Z,5.00
2022-08-24T22:34:53.935Z,4.28
2022-08-24T22:38:17.391Z,7.20
2022-08-24T22:41:41.102Z,7.78
2022-08-24T22:45:04.532Z,5.65
2022-08-24T22:48:28.944Z,5.97
2022-08-24T22:51:51.972Z,5.30
2022-08-24T22:55:15.160Z,4.68
2022-08-24T22:58:38.274Z,5.00
2022-08-24T23:02:01.387Z,5.13
2022-08-24T23:05:25.909Z,5.43
2022-08-24T23:08:49.218Z,4.88
2022-08-24T23:12:14.944Z,5.40
2022-08-24T23:15:37.943Z,5.07
2022-08-24T23:19:19.283Z,5.38
2022-08-24T23:22:43.634Z,5.95
2022-08-24T23:26:07.234Z,6.35
2022-08-24T23:29:31.237Z,5.10
2022-08-24T23:32:54.217Z,5.10
2022-08-24T23:36:20.938Z,5.65
2022-08-24T23:39:45.418Z,5.60
2022-08-24T23:43:08.446Z,6.63
2022-08-24T23:46:31.742Z,6.07
2022-08-24T23:49:55.393Z,5.82
2022-08-24T23:53:18.485Z,7.85
2022-08-24T23:56:44.561Z,6.13
